Junction City, WI

12:38 PM CDT on April 19, 2015 (GMT -0500)
RAWS | | Change Station
CLOSE
Current Station
Personal Weather Station
Location: Blenker, WI
Elevation: 1149 ft
Nearby Weather Stations

Elev 1149 ft 44.70 °N, 89.87 °W | Updated 33 minutes ago

Mostly Cloudy
Mostly Cloudy
59 °F
Feels Like 59 °F
N
9
Wind Variable Wind from SE
Gusts 14.0 mph

Today
High -- | Low -- °F
--% Chance of Precip.
Yesterday
High -- | Low -- °F
Precip. -- in
6:08 AM 7:48 PM
New Moon, 1% visible
Pressure 29.73 in
Visibility 10.0 miles
Clouds Scattered Clouds 8000 ft
Scattered Clouds 9000 ft
Dew Point 34 °F
Humidity 39%
Rainfall in
Snow Depth Not available.
UV 7 out of 12
Pollen 6.70 out of 12
Air Quality Not available.
Flu Activity Local Activity
METAR KSTE 191715Z AUTO 11009G16KT 10SM SCT080 SCT090 16/01 A2973 RMK AO2 T01580011

More Conditions Fewer Conditions

Pressure 29.73 in
Visibility 10.0 miles
Clouds Scattered Clouds 8000 ft
Scattered Clouds 9000 ft
Dew Point 34 °F
Humidity 39%
Rainfall in
Snow Depth Not available.
UV 7 out of 12
Pollen 6.70 out of 12
Air Quality Not available.
Flu Activity Local Activity
METAR KSTE 191715Z AUTO 11009G16KT 10SM SCT080 SCT090 16/01 A2973 RMK AO2 T01580011

More Conditions Fewer Conditions

10-Day Weather Forecast

Almanac

Astronomy

Apr. 19, 2015 Rise Set
Actual Time
Civil Twilight
Nautical Twilight
Astronomical Twilight
Moon
Length of Visible Light
Length of Day
Tomorrow will be .
, % of the Moon is Illuminated

Today's Extremes

State Highs State Lows

Community

WunderPhotos

Upload Photos

1,814,873 photos uploaded!

WunderBlogs® & News

Nearby

Air Quality

  Air Quality AQ Index Pollutant
Not available.

Snow Depth

Station Depth Elevation

Earthquake Activity

City Distance Mag. Time & Date
Minimum magnitude displayed is 2.5.

Coastal Water Temperatures

Place Temperature

Stations

Nearby Weather Stations

Station Location Temp. Windchill Dew Point Humidity Wind Precip. Elev Updated Type